Time;durP1;ratioP1;P1;durP2;ratioP2;P2;SDS_P1;SDS_P2;PMS_P1;PMS_P2;Temp;Humidity;BMP_temperature;BMP_pressure;BME280_temperature;BME280_humidity;BME280_pressure;Samples;Min_cycle;Max_cycle;Signal;HPM_P1;HPM_P2
2022/06/07 00:00:56;;;;;;;32.78;22.77;;;;;;;18.56;100.00;98729.47;4237743;33;20358;-73
2022/06/07 00:03:22;;;;;;;32.00;22.15;;;;;;;18.54;100.00;98720.78;4227273;33;20052;-72
2022/06/07 00:05:49;;;;;;;28.50;23.20;;;;;;;18.79;100.00;98749.34;4240097;33;20097;-73
2022/06/07 00:08:18;;;;;;;30.55;22.75;;;;;;;18.85;100.00;98743.47;4237733;33;20046;-72
2022/06/07 00:10:46;;;;;;;26.98;21.95;;;;;;;18.68;100.00;98716.88;4240328;33;20051;-72
2022/06/07 00:13:13;;;;;;;32.28;22.92;;;;;;;18.89;100.00;98760.03;4238537;33;20437;-72
2022/06/07 00:15:40;;;;;;;29.23;23.17;;;;;;;18.92;100.00;98764.06;4239422;33;20089;-72
2022/06/07 00:18:08;;;;;;;36.10;24.00;;;;;;;18.58;100.00;98710.88;4238226;33;20430;-74
2022/06/07 00:20:36;;;;;;;27.80;22.77;;;;;;;18.73;100.00;98745.13;4238856;33;20051;-72
2022/06/07 00:23:09;;;;;;;34.00;23.35;;;;;;;18.77;100.00;98757.84;4227033;33;20068;-72
2022/06/07 00:25:37;;;;;;;35.22;23.98;;;;;;;18.78;100.00;98743.09;4239993;33;20039;-72
2022/06/07 00:28:04;;;;;;;30.77;23.10;;;;;;;18.78;100.00;98759.47;4237511;33;20039;-74
2022/06/07 00:30:31;;;;;;;31.40;22.52;;;;;;;18.63;100.00;98752.44;4238178;33;20034;-73
2022/06/07 00:32:58;;;;;;;31.62;22.55;;;;;;;18.46;100.00;98742.22;4226981;33;20436;-73
2022/06/07 00:35:24;;;;;;;32.15;20.95;;;;;;;18.48;100.00;98745.44;4213483;34;20060;-73
2022/06/07 00:37:57;;;;;;;33.17;22.00;;;;;;;18.27;100.00;98711.63;4225667;34;20099;-72
2022/06/07 00:40:24;;;;;;;27.87;21.50;;;;;;;18.53;100.00;98749.97;4212273;34;20027;-74
2022/06/07 00:42:50;;;;;;;27.92;21.87;;;;;;;18.23;100.00;98696.97;4231721;33;20082;-72
2022/06/07 00:45:20;;;;;;;32.38;23.70;;;;;;;18.43;100.00;98726.47;4240276;33;20042;-73
2022/06/07 00:47:47;;;;;;;28.75;22.37;;;;;;;18.47;100.00;98721.22;4240873;33;20353;-72
2022/06/07 00:50:40;;;;;;;30.85;22.80;;;;;;;18.48;100.00;98734.53;4241335;33;20054;-74
2022/06/07 00:53:20;;;;;;;27.52;21.87;;;;;;;18.29;100.00;98693.03;4242492;33;20038;-72
2022/06/07 00:55:48;;;;;;;35.75;22.08;;;;;;;18.35;100.00;98713.59;4240859;33;20050;-73
2022/06/07 00:58:15;;;;;;;30.23;22.98;;;;;;;18.01;100.00;98684.94;4240639;33;20505;-72
2022/06/07 01:00:42;;;;;;;29.20;23.25;;;;;;;17.85;100.00;98681.72;4241915;33;20162;-72
2022/06/07 01:03:09;;;;;;;30.40;22.83;;;;;;;18.08;100.00;98718.03;4241950;33;20471;-72
2022/06/07 01:05:38;;;;;;;28.42;22.08;;;;;;;17.90;100.00;98708.06;4241253;33;20471;-73
2022/06/07 01:10:53;;;;;;;36.42;22.77;;;;;;;17.78;100.00;98716.75;4240800;33;20108;-72
2022/06/07 01:13:23;;;;;;;28.83;22.20;;;;;;;17.77;100.00;98710.50;4240290;33;20107;-73
2022/06/07 01:15:51;;;;;;;32.58;22.95;;;;;;;17.48;100.00;98674.63;4241693;33;20385;-72
2022/06/07 01:18:18;;;;;;;33.13;24.90;;;;;;;17.55;100.00;98685.91;4240577;33;20076;-72
2022/06/07 01:20:45;;;;;;;39.15;25.23;;;;;;;17.66;100.00;98725.41;4238817;33;20088;-72
2022/06/07 01:23:12;;;;;;;40.78;26.12;;;;;;;17.78;100.00;98720.25;4225215;34;20434;-74
2022/06/07 01:25:39;;;;;;;36.33;26.48;;;;;;;17.89;100.00;98728.25;4227601;34;20105;-71
2022/06/07 01:28:05;;;;;;;34.85;24.52;;;;;;;17.90;100.00;98718.97;4227551;34;20073;-71
2022/06/07 01:30:32;;;;;;;39.20;25.92;;;;;;;17.72;100.00;98680.63;4228045;34;20069;-71
2022/06/07 01:32:58;;;;;;;38.75;26.65;;;;;;;17.74;100.00;98678.44;4233576;33;20053;-71
2022/06/07 01:35:25;;;;;;;39.97;25.60;;;;;;;17.84;100.00;98679.28;4239812;33;20049;-74
2022/06/07 01:37:51;;;;;;;39.80;23.98;;;;;;;17.94;100.00;98703.63;4241858;33;20187;-73
2022/06/07 01:43:03;;;;;;;33.50;24.85;;;;;;;17.99;100.00;98714.41;4240493;33;20447;-75
2022/06/07 01:45:29;;;;;;;32.20;23.95;;;;;;;17.66;100.00;98657.34;4240239;33;20057;-73
2022/06/07 01:47:56;;;;;;;32.60;23.15;;;;;;;17.97;100.00;98697.56;4241466;33;20051;-74
2022/06/07 01:50:22;;;;;;;34.67;25.80;;;;;;;17.88;100.00;98683.06;4241730;33;20064;-74
2022/06/07 01:52:49;;;;;;;26.40;22.52;;;;;;;17.69;100.00;98654.00;4241446;33;20080;-74
2022/06/07 01:55:16;;;;;;;25.75;20.50;;;;;;;17.87;100.00;98684.97;4227496;33;20060;-75
2022/06/07 01:57:43;;;;;;;29.02;21.10;;;;;;;17.84;100.00;98698.34;4239829;33;20059;-74
2022/06/07 02:00:10;;;;;;;27.92;22.10;;;;;;;17.72;100.00;98696.97;4233648;33;20405;-73
2022/06/07 02:02:40;;;;;;;31.67;23.05;;;;;;;17.41;100.00;98656.78;4235404;33;20182;-73
2022/06/07 02:05:08;;;;;;;30.98;21.60;;;;;;;17.45;100.00;98661.63;4238141;33;20467;-74
2022/06/07 02:07:34;;;;;;;25.80;21.35;;;;;;;17.65;100.00;98696.59;4228234;33;20068;-74
2022/06/07 02:10:02;;;;;;;28.08;20.83;;;;;;;17.26;100.00;98657.09;4241432;33;20043;-74
2022/06/07 02:12:30;;;;;;;27.77;21.27;;;;;;;17.51;100.00;98695.81;4241226;33;20056;-73
2022/06/07 02:14:59;;;;;;;28.70;21.87;;;;;;;17.37;100.00;98684.91;4240724;33;20076;-75
2022/06/07 02:17:25;;;;;;;34.17;24.25;;;;;;;17.23;100.00;98660.41;4240427;33;20050;-73
2022/06/07 02:19:53;;;;;;;33.72;24.67;;;;;;;17.50;100.00;98699.63;4241230;33;20142;-73
2022/06/07 02:22:19;;;;;;;33.35;24.67;;;;;;;17.31;100.00;98659.72;4240501;33;20051;-73
2022/06/07 02:24:52;;;;;;;39.20;25.55;;;;;;;17.21;100.00;98638.16;4239833;33;20050;-74
2022/06/07 02:27:21;;;;;;;34.72;24.40;;;;;;;17.33;100.00;98662.94;4239667;33;20073;-73
2022/06/07 02:29:51;;;;;;;32.10;23.98;;;;;;;17.70;100.00;98715.53;4241430;33;20058;-73
2022/06/07 02:32:26;;;;;;;31.50;23.27;;;;;;;17.67;100.00;98710.69;4227131;33;20068;-73
2022/06/07 02:34:56;;;;;;;32.33;21.67;;;;;;;17.69;100.00;98713.13;4238957;33;20045;-74
2022/06/07 02:37:24;;;;;;;30.65;22.83;;;;;;;17.73;100.00;98704.03;4241098;33;20814;-72
2022/06/07 02:39:51;;;;;;;33.20;23.52;;;;;;;17.69;100.00;98703.03;4239420;33;20096;-72
2022/06/07 02:42:23;;;;;;;31.08;22.42;;;;;;;17.70;100.00;98699.19;4240219;33;20448;-73
2022/06/07 02:44:49;;;;;;;32.10;21.57;;;;;;;17.76;100.00;98706.16;4239058;33;20068;-74
2022/06/07 02:47:15;;;;;;;32.40;22.10;;;;;;;17.55;100.00;98680.47;4240046;33;20178;-74
2022/06/07 02:49:42;;;;;;;34.80;23.33;;;;;;;17.67;100.00;98694.38;4235140;33;20442;-73
2022/06/07 02:52:09;;;;;;;32.45;22.83;;;;;;;17.68;100.00;98703.31;4239565;33;20043;-73
2022/06/07 02:54:37;;;;;;;28.30;21.37;;;;;;;17.51;100.00;98663.94;4240070;33;20152;-73
2022/06/07 02:57:06;;;;;;;29.25;22.02;;;;;;;17.72;100.00;98702.41;4238414;33;20498;-72
2022/06/07 02:59:41;;;;;;;25.95;19.55;;;;;;;17.28;100.00;98633.12;4240421;33;20099;-72
2022/06/07 03:02:07;;;;;;;29.35;21.90;;;;;;;17.41;100.00;98670.41;4239343;33;20347;-73
2022/06/07 03:04:34;;;;;;;31.02;22.42;;;;;;;17.32;100.00;98655.09;4237930;33;20060;-74
2022/06/07 03:07:02;;;;;;;27.48;19.42;;;;;;;17.66;100.00;98700.91;4240808;33;20081;-73
2022/06/07 03:09:30;;;;;;;32.55;21.02;;;;;;;17.44;100.00;98669.00;4240349;33;20411;-73
2022/06/07 03:11:58;;;;;;;28.30;19.50;;;;;;;17.71;100.00;98700.00;4239753;33;20122;-73
2022/06/07 03:14:24;;;;;;;27.33;19.77;;;;;;;17.38;100.00;98649.22;4239976;33;20095;-72
2022/06/07 03:16:51;;;;;;;28.77;20.98;;;;;;;17.50;100.00;98694.97;4238273;33;20132;-74
2022/06/07 03:19:18;;;;;;;32.47;22.10;;;;;;;17.48;100.00;98690.97;4239481;33;20051;-73
2022/06/07 03:21:44;;;;;;;34.08;22.17;;;;;;;17.30;100.00;98652.66;4232516;33;20131;-72
2022/06/07 03:24:11;;;;;;;27.23;20.60;;;;;;;17.28;100.00;98645.91;4225619;34;20089;-72
2022/06/07 03:26:38;;;;;;;28.33;22.42;;;;;;;17.58;100.00;98697.00;4225123;34;20060;-73
2022/06/07 03:29:05;;;;;;;37.50;22.13;;;;;;;17.59;100.00;98692.34;4225127;34;20058;-73
2022/06/07 03:31:32;;;;;;;31.12;22.10;;;;;;;17.31;100.00;98640.69;4221762;33;20043;-73
2022/06/07 03:33:58;;;;;;;29.33;22.05;;;;;;;17.38;100.00;98664.75;4238541;33;20071;-72
2022/06/07 03:36:29;;;;;;;32.42;22.92;;;;;;;17.51;100.00;98688.44;4238843;33;20026;-74
2022/06/07 03:39:02;;;;;;;29.75;21.90;;;;;;;17.68;100.00;98687.81;4239113;33;20062;-73
2022/06/07 03:41:31;;;;;;;29.75;22.67;;;;;;;17.54;100.00;98651.66;4227483;33;20050;-73
2022/06/07 03:43:59;;;;;;;32.28;22.85;;;;;;;17.51;100.00;98649.53;4239808;33;20030;-73
2022/06/07 03:46:28;;;;;;;29.27;22.20;;;;;;;17.58;100.00;98664.34;4225843;33;20034;-73
2022/06/07 03:48:55;;;;;;;31.83;21.27;;;;;;;17.36;100.00;98618.81;4239801;33;20076;-73
2022/06/07 03:51:26;;;;;;;36.63;22.73;;;;;;;17.88;100.00;98693.94;4239943;33;20444;-73
2022/06/07 03:53:54;;;;;;;27.80;20.92;;;;;;;17.91;100.00;98690.63;4239901;33;20047;-73
2022/06/07 03:56:23;;;;;;;27.40;20.67;;;;;;;17.92;100.00;98684.06;4238122;33;20473;-74
2022/06/07 03:58:51;;;;;;;29.52;21.35;;;;;;;17.95;100.00;98688.91;4239731;33;20050;-73
2022/06/07 04:01:20;;;;;;;29.58;21.55;;;;;;;17.69;100.00;98647.78;4227404;33;20389;-73
2022/06/07 04:03:50;;;;;;;30.37;22.92;;;;;;;17.97;100.00;98687.47;4236352;33;20046;-73
2022/06/07 04:06:26;;;;;;;31.70;22.13;;;;;;;18.05;100.00;98679.69;4225843;33;20333;-73
2022/06/07 04:08:54;;;;;;;34.17;21.35;;;;;;;17.68;100.00;98641.53;4238744;33;20301;-72
2022/06/07 04:11:24;;;;;;;29.65;21.15;;;;;;;17.79;100.00;98675.59;4229227;33;20082;-73
2022/06/07 04:13:52;;;;;;;30.40;21.02;;;;;;;17.89;100.00;98673.78;4233348;33;20086;-72
2022/06/07 04:16:21;;;;;;;29.98;21.42;;;;;;;18.00;100.00;98658.00;4238023;33;20081;-75
2022/06/07 04:18:49;;;;;;;29.87;22.42;;;;;;;18.03;100.00;98652.75;4239378;33;20112;-74
2022/06/07 04:21:17;;;;;;;29.63;21.90;;;;;;;18.00;100.00;98639.75;4240908;33;20057;-73
2022/06/07 04:23:44;;;;;;;33.33;20.85;;;;;;;17.98;100.00;98633.78;4242980;33;20440;-72
2022/06/07 04:26:14;;;;;;;29.83;20.55;;;;;;;18.20;100.00;98648.56;4239827;33;20064;-73
2022/06/07 04:31:19;;;;;;;25.73;18.77;;;;;;;18.24;100.00;98635.94;4241913;33;20076;-76
2022/06/07 04:33:47;;;;;;;26.27;20.05;;;;;;;18.09;100.00;98607.94;4242136;33;20041;-76
2022/06/07 04:36:18;;;;;;;29.45;18.55;;;;;;;18.19;100.00;98638.75;4239688;33;20076;-77
2022/06/07 04:38:47;;;;;;;34.53;21.30;;;;;;;18.37;100.00;98647.88;4229679;33;20080;-77
2022/06/07 04:41:16;;;;;;;28.98;20.23;;;;;;;18.48;100.00;98658.22;4229670;33;20068;-76
2022/06/07 04:43:43;;;;;;;31.08;19.65;;;;;;;18.22;100.00;98616.34;4241939;33;20034;-76
2022/06/07 04:46:15;;;;;;;25.12;18.77;;;;;;;18.18;100.00;98615.38;4239819;33;20050;-78
2022/06/07 04:48:44;;;;;;;31.33;19.87;;;;;;;18.48;100.00;98660.94;4227652;33;20050;-77
2022/06/07 04:51:18;;;;;;;27.50;21.15;;;;;;;18.33;100.00;98617.69;4234726;33;20188;-76
2022/06/07 04:53:45;;;;;;;30.88;20.42;;;;;;;18.57;100.00;98655.56;4241605;33;20058;-76
2022/06/07 04:56:34;;;;;;;28.33;20.45;;;;;;;18.27;100.00;98608.06;4240844;33;20068;-76
2022/06/07 04:59:02;;;;;;;28.75;20.45;;;;;;;18.59;100.00;98647.03;4240928;33;20047;-76
2022/06/07 05:01:36;;;;;;;27.35;19.77;;;;;;;18.33;100.00;98628.59;4240075;33;20064;-78
2022/06/07 05:04:04;;;;;;;26.58;20.25;;;;;;;18.26;100.00;98623.59;4240258;33;20080;-77
2022/06/07 05:06:35;;;;;;;26.62;20.48;;;;;;;18.42;100.00;98658.66;4241564;33;20093;-78
2022/06/07 05:09:09;;;;;;;26.23;19.98;;;;;;;18.04;100.00;98588.97;4242003;33;20452;-76
2022/06/07 05:11:39;;;;;;;27.33;20.02;;;;;;;18.30;100.00;98607.41;4240418;33;20066;-77
2022/06/07 05:14:07;;;;;;;32.50;20.17;;;;;;;18.90;100.00;98657.19;4242051;33;20034;-76
2022/06/07 05:16:40;;;;;;;37.03;18.98;;;;;;;19.01;100.00;98658.50;4242140;33;20034;-76
2022/06/07 05:19:10;;;;;;;25.23;19.50;;;;;;;19.14;100.00;98652.13;4233175;33;20050;-74
2022/06/07 05:21:38;;;;;;;31.90;19.08;;;;;;;18.84;100.00;98605.50;4237828;33;20038;-73
2022/06/07 05:24:05;;;;;;;26.48;16.95;;;;;;;19.06;100.00;98640.06;4241111;33;20054;-76
2022/06/07 05:26:47;;;;;;;30.10;18.02;;;;;;;19.07;100.00;98646.34;4242290;33;20234;-76
2022/06/07 05:29:32;;;;;;;26.70;16.10;;;;;;;19.36;100.00;98647.72;4240922;33;20060;-78
2022/06/07 05:31:59;;;;;;;24.90;17.48;;;;;;;19.21;100.00;98652.50;4240041;33;20058;-76
2022/06/07 05:34:25;;;;;;;20.67;16.90;;;;;;;19.33;100.00;98659.28;4240536;33;20046;-76
2022/06/07 05:36:52;;;;;;;26.95;15.82;;;;;;;19.55;100.00;98663.84;4241456;33;20054;-77
2022/06/07 05:39:23;;;;;;;23.95;15.93;;;;;;;19.57;100.00;98676.03;4239536;33;20034;-75
2022/06/07 05:41:50;;;;;;;21.10;16.55;;;;;;;19.88;100.00;98675.16;4240119;33;20064;-75
2022/06/07 05:44:19;;;;;;;22.25;16.15;;;;;;;20.03;100.00;98670.34;4226279;33;20073;-77
2022/06/07 05:46:48;;;;;;;27.73;15.73;;;;;;;19.67;100.00;98635.88;4240093;33;20067;-76
2022/06/07 05:49:16;;;;;;;21.02;14.80;;;;;;;19.80;100.00;98678.69;4223959;33;20333;-75
2022/06/07 05:51:46;;;;;;;18.42;14.85;;;;;;;19.53;100.00;98642.31;4240636;33;20068;-75
2022/06/07 05:54:14;;;;;;;22.27;14.75;;;;;;;19.70;100.00;98681.69;4238243;33;20073;-83
2022/06/07 05:56:41;;;;;;;18.15;14.55;;;;;;;19.32;100.00;98635.81;4239253;33;20468;-82
2022/06/07 05:59:08;;;;;;;24.20;16.65;;;;;;;19.75;100.00;98668.69;4235287;33;20092;-82
2022/06/07 06:01:35;;;;;;;22.13;15.40;;;;;;;19.49;100.00;98635.84;4239321;33;20352;-81
2022/06/07 06:04:03;;;;;;;22.05;13.82;;;;;;;19.36;100.00;98645.00;4226344;33;20487;-82
2022/06/07 06:06:31;;;;;;;18.17;13.75;;;;;;;19.27;100.00;98605.94;4239769;33;20453;-82
2022/06/07 06:11:44;;;;;;;26.08;14.57;;;;;;;19.77;100.00;98641.88;4228563;33;20436;-83
2022/06/07 06:14:11;;;;;;;19.83;16.40;;;;;;;20.10;100.00;98665.19;4226441;34;20847;-78
2022/06/07 06:16:38;;;;;;;20.48;14.70;;;;;;;20.25;100.00;98670.19;4213106;34;20042;-77
2022/06/07 06:19:05;;;;;;;22.23;14.15;;;;;;;20.22;100.00;98670.81;4227209;34;20207;-76
2022/06/07 06:21:41;;;;;;;17.75;14.40;;;;;;;20.01;100.00;98642.50;4215257;34;20121;-73
2022/06/07 06:24:10;;;;;;;18.58;15.00;;;;;;;20.24;100.00;98665.81;4234473;33;20120;-73
2022/06/07 06:26:40;;;;;;;18.20;14.52;;;;;;;20.04;100.00;98639.16;4237453;33;20075;-73
2022/06/07 06:29:10;;;;;;;18.05;13.15;;;;;;;20.00;100.00;98638.19;4237204;33;20108;-73
2022/06/07 06:31:40;;;;;;;18.65;14.93;;;;;;;20.01;100.00;98634.31;4239384;33;20068;-75
2022/06/07 06:34:07;;;;;;;29.17;14.48;;;;;;;20.30;100.00;98670.00;4239137;33;20056;-79
2022/06/07 06:36:35;;;;;;;24.63;16.48;;;;;;;20.29;100.00;98651.97;4240577;33;20367;-80
2022/06/07 06:39:02;;;;;;;27.42;15.07;;;;;;;20.31;100.00;98663.41;4226848;33;20046;-80
2022/06/07 06:41:32;;;;;;;24.55;14.32;;;;;;;20.27;100.00;98665.19;4227765;33;20365;-80
2022/06/07 06:44:01;;;;;;;17.37;13.23;;;;;;;20.24;100.00;98654.88;4224249;33;20039;-80
2022/06/07 06:46:34;;;;;;;19.58;13.55;;;;;;;20.19;100.00;98660.53;4226923;33;20365;-80
2022/06/07 06:49:03;;;;;;;20.08;13.62;;;;;;;20.23;100.00;98664.25;4223731;33;20074;-79
2022/06/07 06:51:32;;;;;;;16.50;12.45;;;;;;;20.17;100.00;98662.78;4238718;33;20050;-82
2022/06/07 06:54:01;;;;;;;17.40;12.32;;;;;;;19.98;100.00;98630.31;4237748;33;20076;-79
2022/06/07 06:56:31;;;;;;;12.80;10.98;;;;;;;20.06;100.00;98675.16;4240925;33;20393;-79
2022/06/07 06:59:01;;;;;;;18.92;9.20;;;;;;;19.75;100.00;98632.34;4239046;33;20168;-79
2022/06/07 07:01:32;;;;;;;11.20;9.80;;;;;;;20.08;100.00;98623.72;4226003;33;20035;-82
2022/06/07 07:04:03;;;;;;;13.43;10.15;;;;;;;20.09;100.00;98630.81;4226103;33;20068;-80
2022/06/07 07:06:31;;;;;;;16.62;9.32;;;;;;;20.31;100.00;98666.16;4240006;33;20057;-80
2022/06/07 07:09:00;;;;;;;12.75;9.63;;;;;;;20.27;100.00;98670.66;4226557;33;20080;-79
2022/06/07 07:11:35;;;;;;;14.57;10.18;;;;;;;20.11;100.00;98623.06;4225373;33;20042;-82
2022/06/07 07:14:03;;;;;;;11.80;9.25;;;;;;;20.44;100.00;98660.84;4238543;33;20054;-79
2022/06/07 07:16:33;;;;;;;8.60;7.65;;;;;;;20.47;100.00;98651.97;4238641;33;20042;-80
2022/06/07 07:19:03;;;;;;;12.70;9.88;;;;;;;20.47;100.00;98657.44;4225354;33;20026;-79
2022/06/07 07:21:34;;;;;;;11.48;8.73;;;;;;;20.31;100.00;98630.63;4236863;33;20076;-80
2022/06/07 07:24:04;;;;;;;10.70;8.43;;;;;;;20.50;100.00;98657.59;4239382;33;20429;-80
2022/06/07 07:26:35;;;;;;;9.68;8.07;;;;;;;20.56;100.00;98650.03;4224061;34;20069;-79
2022/06/07 07:29:03;;;;;;;13.62;9.23;;;;;;;20.41;100.00;98620.47;4234189;33;20095;-79
2022/06/07 07:31:36;;;;;;;10.88;7.62;;;;;;;20.66;100.00;98659.84;4237547;33;20111;-79
2022/06/07 07:34:09;;;;;;;11.80;7.32;;;;;;;20.66;100.00;98660.66;4225765;33;20066;-79
2022/06/07 07:36:41;;;;;;;10.30;7.60;;;;;;;20.52;100.00;98632.66;4239503;33;20068;-79
2022/06/07 07:39:08;;;;;;;9.25;7.37;;;;;;;20.75;100.00;98663.34;4232600;33;20038;-79
2022/06/07 07:41:37;;;;;;;12.23;9.98;;;;;;;20.58;100.00;98625.91;4221067;33;20104;-82
2022/06/07 07:44:09;;;;;;;15.52;7.55;;;;;;;20.64;100.00;98630.06;4239407;33;20031;-77
2022/06/07 07:46:38;;;;;;;11.68;9.68;;;;;;;20.77;100.00;98622.78;4238876;33;20051;-77
2022/06/07 07:49:06;;;;;;;21.37;11.85;;;;;;;20.97;100.00;98629.47;4236665;33;20038;-75
2022/06/07 07:51:39;;;;;;;7.43;6.30;;;;;;;21.12;100.00;98635.53;4238909;33;20063;-74
2022/06/07 07:54:09;;;;;;;7.45;5.78;;;;;;;21.32;100.00;98670.38;4239176;33;20043;-75
2022/06/07 07:56:37;;;;;;;7.75;5.15;;;;;;;20.99;100.00;98629.16;4239762;33;20038;-74
2022/06/07 07:59:06;;;;;;;5.00;4.60;;;;;;;20.94;100.00;98632.09;4235964;33;20353;-76
2022/06/07 08:01:34;;;;;;;8.05;4.55;;;;;;;21.12;100.00;98669.19;4227131;33;20086;-75
2022/06/07 08:04:01;;;;;;;10.93;5.40;;;;;;;21.09;100.00;98663.56;4238191;33;20058;-75
2022/06/07 08:06:30;;;;;;;4.65;4.12;;;;;;;21.10;100.00;98665.19;4239127;33;20039;-75
2022/06/07 08:09:00;;;;;;;6.00;5.18;;;;;;;20.91;100.00;98627.28;4226565;33;20050;-76
2022/06/07 08:11:32;;;;;;;7.43;5.28;;;;;;;21.09;100.00;98644.41;4229830;33;20051;-75
2022/06/07 08:13:59;;;;;;;;;;;;;;;21.00;100.00;98625.31;4224095;34;20047;-75
2022/06/07 08:16:26;;;;;;;6.43;5.12;;;;;;;21.39;100.00;98661.66;4226169;34;19938;-76
2022/06/07 08:18:53;;;;;;;5.60;5.10;;;;;;;21.52;100.00;98655.19;4222854;34;20072;-75
2022/06/07 08:21:25;;;;;;;8.07;5.20;;;;;;;21.48;100.00;98624.09;4224981;34;20062;-75
2022/06/07 08:23:54;;;;;;;10.00;4.78;;;;;;;21.61;100.00;98621.44;4224397;34;20108;-75
2022/06/07 08:26:25;;;;;;;9.13;6.50;;;;;;;21.70;100.00;98619.44;4224571;34;20185;-75
2022/06/07 08:28:54;;;;;;;15.32;5.87;;;;;;;22.08;100.00;98668.66;4222921;34;20031;-75
2022/06/07 08:31:24;;;;;;;7.03;4.90;;;;;;;22.07;100.00;98664.28;4227550;33;20026;-75
2022/06/07 08:39:26;;;;;;;16.95;5.18;;;;;;;22.58;100.00;98674.37;4238049;33;20064;-75
2022/06/07 08:41:59;;;;;;;6.32;5.05;;;;;;;22.66;100.00;98676.22;4224057;33;20353;-76
2022/06/07 08:44:42;;;;;;;5.18;4.50;;;;;;;22.79;100.00;98669.59;4238521;33;20082;-75
2022/06/07 08:47:36;;;;;;;5.95;4.70;;;;;;;22.79;100.00;98631.19;4226305;33;20050;-75
2022/06/07 08:50:26;;;;;;;9.40;4.62;;;;;;;22.89;100.00;98634.63;4238592;33;20061;-75
2022/06/07 08:52:59;;;;;;;6.22;4.80;;;;;;;23.19;100.00;98649.78;4237699;33;20052;-77
2022/06/07 08:55:39;;;;;;;4.93;4.37;;;;;;;23.11;100.00;98625.97;4238486;33;20374;-74
2022/06/07 08:58:28;;;;;;;5.07;4.57;;;;;;;23.46;100.00;98663.97;4238241;33;20039;-74
2022/06/07 09:00:59;;;;;;;6.75;5.45;;;;;;;23.29;100.00;98623.00;4228152;33;20105;-74
2022/06/07 09:03:48;;;;;;;4.60;4.20;;;;;;;23.63;100.00;98662.94;4224494;34;20035;-75
2022/06/07 09:06:21;;;;;;;7.53;4.37;;;;;;;23.66;100.00;98653.16;4223412;33;20203;-76
2022/06/07 09:08:55;;;;;;;6.62;4.45;;;;;;;23.70;100.00;98645.84;4226821;34;20046;-74
2022/06/07 09:14:33;;;;;;;7.53;3.65;;;;;;;23.93;100.00;98663.47;4227377;34;20050;-74
2022/06/07 09:17:08;;;;;;;6.45;4.30;;;;;;;24.04;100.00;98654.72;4227526;34;20050;-74
2022/06/07 09:19:36;;;;;;;6.53;4.57;;;;;;;23.56;100.00;98614.03;4225594;34;20035;-76
2022/06/07 09:22:25;;;;;;;14.45;4.07;;;;;;;23.97;100.00;98644.31;4226590;34;20096;-74
2022/06/07 09:25:14;;;;;;;4.18;3.80;;;;;;;24.11;100.00;98610.94;4228286;34;20539;-74
2022/06/07 09:27:45;;;;;;;5.72;3.90;;;;;;;24.06;100.00;98644.16;4227294;34;20398;-74
2022/06/07 09:30:25;;;;;;;5.75;3.67;;;;;;;24.11;100.00;98654.94;4226734;34;20082;-74
2022/06/07 09:32:53;;;;;;;6.03;4.32;;;;;;;24.05;100.00;98617.84;4224026;33;20090;-75
2022/06/07 09:35:36;;;;;;;8.32;3.90;;;;;;;24.07;100.00;98649.31;4225877;34;20058;-74
2022/06/07 09:38:12;;;;;;;4.93;4.20;;;;;;;23.78;100.00;98657.84;4214486;33;20047;-75
2022/06/07 09:40:56;;;;;;;9.18;4.37;;;;;;;23.76;100.00;98661.75;4224687;34;20047;-71
2022/06/07 09:43:37;;;;;;;6.97;4.22;;;;;;;23.43;100.00;98617.94;4227449;34;20080;-69
2022/06/07 09:46:09;;;;;;;5.10;4.70;;;;;;;23.61;100.00;98658.91;4226666;34;20112;-77
2022/06/07 09:48:42;;;;;;;7.12;4.80;;;;;;;23.31;100.00;98628.94;4214711;34;20072;-74
2022/06/07 09:51:37;;;;;;;11.32;6.75;;;;;;;23.37;100.00;98657.78;4226783;34;20064;-74
2022/06/07 09:54:17;;;;;;;11.68;7.62;;;;;;;23.14;100.00;98658.25;4227532;34;20031;-74
2022/06/07 09:56:53;;;;;;;12.25;6.60;;;;;;;22.93;100.00;98649.25;4227953;34;20351;-74
2022/06/07 09:59:53;;;;;;;7.60;6.50;;;;;;;23.08;100.00;98664.31;4226978;34;20061;-74
2022/06/07 10:02:46;;;;;;;10.43;6.05;;;;;;;22.32;100.00;98661.69;4227133;34;20389;-76
2022/06/07 10:05:28;;;;;;;11.90;6.43;;;;;;;21.83;100.00;98623.84;4215294;34;20486;-75
2022/06/07 10:08:04;;;;;;;;;;;;;;;21.91;100.00;98655.06;4228133;34;20068;-75
2022/06/07 10:10:57;;;;;;;8.88;7.10;;;;;;;21.90;100.00;98645.25;4224157;34;19946;-75
2022/06/07 10:13:51;;;;;;;7.37;6.22;;;;;;;22.20;100.00;98643.22;4226807;34;20043;-73
2022/06/07 10:16:51;;;;;;;9.50;5.68;;;;;;;22.27;100.00;98628.94;4213954;34;20035;-74
2022/06/07 10:19:27;;;;;;;8.95;6.40;;;;;;;22.53;100.00;98627.91;4224115;33;20034;-74
2022/06/07 10:22:18;;;;;;;8.52;6.05;;;;;;;22.60;100.00;98617.19;4226136;34;20077;-74
2022/06/07 10:25:09;;;;;;;6.75;5.87;;;;;;;22.84;100.00;98616.44;4226471;34;20042;-76
2022/06/07 10:27:50;;;;;;;8.00;5.10;;;;;;;22.77;100.00;98617.00;4225314;33;20051;-73
2022/06/07 10:30:34;;;;;;;5.80;5.20;;;;;;;22.84;100.00;98617.22;4226347;34;20362;-76
2022/06/07 10:33:38;;;;;;;5.55;4.97;;;;;;;22.83;100.00;98577.22;4225211;34;20059;-74
2022/06/07 10:36:15;;;;;;;9.68;5.40;;;;;;;23.35;100.00;98602.41;4225869;34;20064;-74
2022/06/07 10:39:06;;;;;;;7.62;4.47;;;;;;;23.31;100.00;98594.06;4226034;34;20131;-74
2022/06/07 10:42:11;;;;;;;13.57;4.97;;;;;;;23.38;100.00;98588.75;4212671;34;20334;-74
2022/06/07 10:45:11;;;;;;;5.62;5.03;;;;;;;23.49;100.00;98589.09;4212276;34;20030;-76
2022/06/07 10:47:56;;;;;;;6.40;5.03;;;;;;;23.63;100.00;98557.69;4225998;34;20380;-73
2022/06/07 10:50:38;;;;;;;11.98;5.07;;;;;;;23.64;100.00;98542.81;4225594;34;20819;-74
2022/06/07 10:53:16;;;;;;;5.22;4.72;;;;;;;24.18;100.00;98575.37;4224092;34;20107;-73
2022/06/07 10:55:52;;;;;;;8.50;5.47;;;;;;;24.08;100.00;98520.88;4224221;34;20068;-74
2022/06/07 10:58:35;;;;;;;4.72;4.30;;;;;;;24.70;100.00;98576.34;4225225;34;20060;-75
2022/06/07 11:01:28;;;;;;;4.57;4.22;;;;;;;25.19;100.00;98570.44;4225424;33;20094;-74
2022/06/07 11:04:07;;;;;;;7.20;5.00;;;;;;;25.77;100.00;98566.19;4198789;34;20031;-76
2022/06/07 11:09:48;;;;;;;4.87;4.32;;;;;;;25.51;100.00;98508.94;4226334;34;20043;-74
2022/06/07 11:12:19;;;;;;;6.00;3.83;;;;;;;25.86;100.00;98552.19;4223992;34;20043;-76
2022/06/07 11:14:55;;;;;;;8.90;4.93;;;;;;;26.36;100.00;98553.16;4225538;34;20055;-74
2022/06/07 11:17:32;;;;;;;4.68;4.28;;;;;;;25.91;100.00;98516.03;4224924;34;20086;-74
2022/06/07 11:20:08;;;;;;;10.18;4.95;;;;;;;25.90;100.00;98548.34;4224469;34;20434;-77
2022/06/07 11:22:37;;;;;;;5.72;4.30;;;;;;;25.78;100.00;98545.72;4226546;34;20062;-74
2022/06/07 11:25:28;;;;;;;4.57;4.20;;;;;;;26.16;100.00;98537.81;4225955;34;20043;-74
2022/06/07 11:27:59;;;;;;;;;;;;;;;26.46;100.00;98547.03;4226200;34;20055;-74
2022/06/07 11:30:42;;;;;;;7.97;4.75;;;;;;;26.27;100.00;98545.13;4223761;33;19952;-73
2022/06/07 11:33:39;;;;;;;5.12;4.62;;;;;;;25.74;100.00;98536.59;4223581;34;20065;-74
2022/06/07 11:36:22;;;;;;;4.65;4.25;;;;;;;25.23;100.00;98542.19;4213761;34;20138;-74
2022/06/07 11:38:55;;;;;;;5.47;4.40;;;;;;;24.84;100.00;98543.66;4224122;33;20042;-73
2022/06/07 11:41:37;;;;;;;7.50;4.15;;;;;;;24.32;100.00;98521.87;4226415;34;20086;-74
2022/06/07 11:44:10;;;;;;;6.57;4.55;;;;;;;24.22;100.00;98546.00;4213132;34;20031;-75
2022/06/07 11:46:49;;;;;;;5.10;4.60;;;;;;;24.13;100.00;98567.37;4225220;34;20066;-74
2022/06/07 11:49:19;;;;;;;5.80;5.12;;;;;;;24.03;100.00;98587.94;4225998;34;20076;-71
2022/06/07 11:52:00;;;;;;;7.37;5.50;;;;;;;23.46;100.00;98551.31;4225816;34;20072;-72
2022/06/07 11:54:53;;;;;;;6.20;5.60;;;;;;;23.19;100.00;98594.84;4226048;34;20080;-74
2022/06/07 11:57:25;;;;;;;11.23;6.43;;;;;;;22.22;100.00;98634.66;4218310;34;20060;-76
2022/06/07 11:59:55;;;;;;;10.90;7.78;;;;;;;21.21;100.00;98650.00;4226407;34;20127;-74